Time;durP1;ratioP1;P1;durP2;ratioP2;P2;SDS_P1;SDS_P2;PMS_P1;PMS_P2;Temp;Humidity;BMP_temperature;BMP_pressure;BME280_temperature;BME280_humidity;BME280_pressure;Samples;Min_cycle;Max_cycle;Signal;HPM_P1;HPM_P2
2021/10/31 00:01:25;;;;;;;36.83;22.48;;;;;;;16.16;68.49;99957.31;4981569;28;121560;-73
2021/10/31 00:03:51;;;;;;;33.22;22.98;;;;;;;16.18;68.46;99969.38;4984297;28;120143;-70
2021/10/31 00:06:17;;;;;;;35.85;20.80;;;;;;;16.20;68.97;99971.63;4982289;28;119910;-71
2021/10/31 00:08:43;;;;;;;37.63;23.73;;;;;;;16.22;68.57;99974.63;4964835;28;119544;-71
2021/10/31 00:11:09;;;;;;;36.47;23.02;;;;;;;16.22;68.87;99975.38;4977917;28;121115;-70
2021/10/31 00:13:35;;;;;;;39.05;24.00;;;;;;;16.21;68.73;99971.13;4955418;28;120554;-73
2021/10/31 00:16:02;;;;;;;39.55;23.88;;;;;;;16.26;68.58;99977.91;4963447;28;120435;-72
2021/10/31 00:18:28;;;;;;;38.17;23.90;;;;;;;16.26;68.99;99975.88;4982359;28;119935;-70
2021/10/31 00:20:56;;;;;;;38.13;23.35;;;;;;;16.27;68.51;99976.63;4980191;28;120145;-71
2021/10/31 00:23:23;;;;;;;42.30;24.48;;;;;;;16.28;68.74;99967.81;4943523;28;120248;-70
2021/10/31 00:25:49;;;;;;;39.30;24.25;;;;;;;16.30;68.55;99974.88;4964600;28;119677;-70
2021/10/31 00:28:14;;;;;;;41.03;24.30;;;;;;;16.30;68.65;99975.63;4988869;28;120316;-72
2021/10/31 00:30:40;;;;;;;40.55;25.35;;;;;;;16.32;68.84;99975.09;4955077;28;119856;-71
2021/10/31 00:33:08;;;;;;;38.28;24.83;;;;;;;16.32;68.53;99978.63;4978046;28;119461;-70
2021/10/31 00:35:33;;;;;;;44.88;25.58;;;;;;;16.33;68.52;99979.41;4981128;28;121524;-70
2021/10/31 00:37:59;;;;;;;43.75;25.05;;;;;;;16.31;68.83;99970.84;4974616;28;119504;-70
2021/10/31 00:40:24;;;;;;;43.33;27.25;;;;;;;16.31;68.69;99977.13;4976910;28;120192;-72
2021/10/31 00:42:50;;;;;;;40.35;25.25;;;;;;;16.34;68.64;99978.16;4979074;28;120105;-72
2021/10/31 00:45:16;;;;;;;44.92;26.35;;;;;;;16.37;68.69;99977.88;4972228;28;119950;-72
2021/10/31 00:47:42;;;;;;;41.78;26.63;;;;;;;16.38;68.89;99987.69;4983077;28;119877;-73
2021/10/31 00:50:08;;;;;;;44.03;26.88;;;;;;;16.41;68.57;99997.00;4979924;28;119697;-72
2021/10/31 00:52:36;;;;;;;42.75;26.48;;;;;;;16.42;68.52;99995.72;4970084;28;121887;-73
2021/10/31 00:55:02;;;;;;;39.70;25.90;;;;;;;16.44;68.40;99995.97;4950665;28;119818;-72
2021/10/31 00:57:28;;;;;;;47.55;26.77;;;;;;;16.41;68.54;100008.81;4970737;28;119773;-73
2021/10/31 00:59:54;;;;;;;40.03;25.67;;;;;;;16.44;68.81;100004.28;4954866;28;121164;-72
2021/10/31 01:02:19;;;;;;;41.47;25.08;;;;;;;16.43;68.52;100011.06;4970048;28;119322;-72
2021/10/31 01:04:54;;;;;;;41.38;27.20;;;;;;;16.42;68.52;100012.34;4954939;28;120457;-72
2021/10/31 01:07:32;;;;;;;42.55;26.95;;;;;;;16.41;68.93;100019.88;4972764;28;119940;-72
2021/10/31 01:10:16;;;;;;;44.00;26.50;;;;;;;16.43;68.62;100019.38;4974944;28;119772;-73
2021/10/31 01:12:51;;;;;;;43.15;27.75;;;;;;;16.42;68.62;100029.69;4977134;28;120038;-72
2021/10/31 01:15:29;;;;;;;43.65;26.88;;;;;;;16.40;68.87;100021.16;4953117;28;120095;-72
2021/10/31 01:18:00;;;;;;;43.60;27.80;;;;;;;16.40;68.85;100018.38;4978646;28;120005;-73
2021/10/31 01:20:41;;;;;;;44.25;27.73;;;;;;;16.41;68.94;100019.88;4977550;28;119756;-73
2021/10/31 01:23:23;;;;;;;38.80;25.58;;;;;;;16.42;68.78;100028.94;4981396;28;119900;-72
2021/10/31 01:25:55;;;;;;;44.10;27.02;;;;;;;16.43;68.88;100022.91;4975712;28;119870;-73
2021/10/31 01:28:59;;;;;;;40.35;25.75;;;;;;;16.43;68.83;100033.97;4974306;28;120912;-73
2021/10/31 01:31:59;;;;;;;41.67;25.67;;;;;;;16.42;69.13;100029.69;4957895;28;119892;-72
2021/10/31 01:34:42;;;;;;;39.97;24.85;;;;;;;16.43;68.93;100039.50;4973281;28;120257;-73
2021/10/31 01:37:20;;;;;;;40.17;23.80;;;;;;;16.43;69.16;100033.97;4939736;28;119929;-73
2021/10/31 01:39:58;;;;;;;40.35;25.98;;;;;;;16.44;68.96;100035.47;4956922;28;120276;-73
2021/10/31 01:42:33;;;;;;;43.67;26.88;;;;;;;16.45;68.71;100036.97;4979174;28;120060;-73
2021/10/31 01:45:24;;;;;;;41.70;25.92;;;;;;;16.45;68.74;100030.69;4970453;28;119469;-73
2021/10/31 01:48:12;;;;;;;44.90;26.92;;;;;;;16.45;68.83;100041.78;4979030;28;119994;-72
2021/10/31 01:50:40;;;;;;;40.03;24.20;;;;;;;16.46;68.78;100048.81;4975564;28;120329;-73
2021/10/31 01:53:23;;;;;;;40.13;24.90;;;;;;;16.46;68.63;100044.03;4977766;28;119860;-73
2021/10/31 01:56:00;;;;;;;41.42;25.10;;;;;;;16.48;68.76;100047.03;4975108;28;119733;-73
2021/10/31 01:58:31;;;;;;;44.28;26.10;;;;;;;16.46;68.61;100051.59;4977010;28;120905;-72
2021/10/31 02:01:00;;;;;;;42.20;26.63;;;;;;;16.35;68.73;100035.00;4952148;28;119988;-72
2021/10/31 02:03:25;;;;;;;44.78;26.70;;;;;;;16.46;68.79;100049.56;4980635;28;120007;-72
2021/10/31 02:05:53;;;;;;;43.92;26.75;;;;;;;16.47;68.99;100051.06;4979419;28;119625;-72
2021/10/31 02:08:25;;;;;;;39.42;25.70;;;;;;;16.48;68.73;100055.34;4984221;28;119633;-73
2021/10/31 02:10:52;;;;;;;45.25;28.65;;;;;;;16.48;69.19;100063.66;4961655;28;121117;-72
2021/10/31 02:13:23;;;;;;;42.85;26.95;;;;;;;16.47;68.55;100064.91;4980049;28;119836;-74
2021/10/31 02:15:52;;;;;;;48.35;29.23;;;;;;;16.48;68.78;100066.41;4950989;28;120375;-73
2021/10/31 02:18:19;;;;;;;45.92;28.85;;;;;;;16.48;68.75;100069.19;4976276;28;120866;-73
2021/10/31 02:20:47;;;;;;;44.50;27.73;;;;;;;16.48;68.86;100074.72;4978852;28;120310;-73
2021/10/31 02:23:13;;;;;;;47.47;28.15;;;;;;;16.48;68.44;100069.19;4978634;28;120984;-73
2021/10/31 02:25:39;;;;;;;46.58;28.02;;;;;;;16.50;68.35;100076.97;4977621;28;120115;-73
2021/10/31 02:28:05;;;;;;;45.45;28.40;;;;;;;16.45;68.57;100070.19;4971453;28;119464;-73
2021/10/31 02:30:31;;;;;;;44.83;28.83;;;;;;;16.45;68.20;100075.75;4960747;28;122281;-73
2021/10/31 02:32:57;;;;;;;46.75;27.73;;;;;;;16.42;68.14;100073.22;4953194;28;120028;-73
2021/10/31 02:35:23;;;;;;;46.38;27.25;;;;;;;16.40;68.32;100084.06;4969583;28;119749;-73
2021/10/31 02:37:50;;;;;;;47.42;28.45;;;;;;;16.37;68.24;100082.31;4981074;28;120445;-72
2021/10/31 02:40:21;;;;;;;49.95;28.70;;;;;;;16.31;68.16;100085.06;4946088;28;119401;-73
2021/10/31 02:42:47;;;;;;;49.88;29.70;;;;;;;16.30;68.36;100086.31;4962721;28;119660;-73
2021/10/31 02:45:13;;;;;;;46.20;28.23;;;;;;;16.25;68.48;100082.28;4976085;28;119854;-72
2021/10/31 02:47:40;;;;;;;44.85;28.90;;;;;;;16.25;68.19;100087.06;4981434;28;120076;-72
2021/10/31 02:50:10;;;;;;;48.78;28.30;;;;;;;16.21;68.35;100090.09;4974537;28;120030;-73
2021/10/31 02:53:27;;;;;;;48.40;28.42;;;;;;;16.21;68.38;100100.41;4976814;28;119774;-75
2021/10/31 02:56:06;;;;;;;48.78;28.02;;;;;;;16.16;68.33;100101.94;5003886;28;120188;-72
2021/10/31 02:58:44;;;;;;;46.05;27.63;;;;;;;16.03;68.45;100090.59;4971339;28;120454;-73
2021/10/31 03:01:11;;;;;;;51.45;31.00;;;;;;;16.11;68.77;100110.22;4976858;28;119455;-73
2021/10/31 03:03:37;;;;;;;54.95;29.08;;;;;;;16.13;68.82;100111.22;4980763;28;120422;-73
2021/10/31 03:06:04;;;;;;;50.53;28.95;;;;;;;16.13;68.70;100114.00;4963640;28;119828;-73
2021/10/31 03:08:32;;;;;;;49.22;31.10;;;;;;;16.14;68.95;100109.22;4969432;28;119970;-73
2021/10/31 03:11:02;;;;;;;53.65;29.75;;;;;;;16.16;68.74;100113.00;4976846;28;119940;-72
2021/10/31 03:13:28;;;;;;;58.85;31.52;;;;;;;16.16;68.66;100112.25;4960823;28;119644;-72
2021/10/31 03:15:54;;;;;;;53.53;31.50;;;;;;;16.18;68.77;100110.47;4964989;28;121450;-73
2021/10/31 03:18:20;;;;;;;51.47;30.02;;;;;;;16.16;68.81;100109.47;4979881;28;119915;-73
2021/10/31 03:20:46;;;;;;;56.65;31.05;;;;;;;16.16;68.87;100115.75;4968772;28;119733;-72
2021/10/31 03:23:12;;;;;;;54.58;31.70;;;;;;;16.18;68.88;100124.31;4972755;28;121246;-74
2021/10/31 03:25:38;;;;;;;55.40;31.00;;;;;;;16.17;69.19;100119.28;4979190;28;119836;-72
2021/10/31 03:28:04;;;;;;;50.97;29.83;;;;;;;16.18;68.89;100121.53;4955176;28;119821;-72
2021/10/31 03:30:31;;;;;;;50.85;31.85;;;;;;;16.20;68.91;100129.34;4973064;28;119937;-72
2021/10/31 03:32:57;;;;;;;52.08;31.45;;;;;;;16.22;68.89;100130.34;4967683;28;119509;-72
2021/10/31 03:35:23;;;;;;;57.28;32.05;;;;;;;16.22;68.84;100126.81;4966525;28;119507;-72
2021/10/31 03:37:50;;;;;;;53.50;30.98;;;;;;;16.24;69.11;100132.59;4982686;28;122069;-72
2021/10/31 03:40:16;;;;;;;55.60;31.10;;;;;;;16.26;69.29;100141.16;4979740;28;119665;-72
2021/10/31 03:42:42;;;;;;;57.08;32.03;;;;;;;16.27;69.13;100139.91;4981113;28;119513;-72
2021/10/31 03:45:10;;;;;;;56.03;30.55;;;;;;;16.27;69.04;100148.97;4975656;28;119635;-72
2021/10/31 03:47:41;;;;;;;51.47;30.05;;;;;;;16.27;68.97;100151.72;4981705;28;119976;-72
2021/10/31 03:50:07;;;;;;;57.67;31.38;;;;;;;16.28;69.23;100147.69;4968930;28;119534;-72
2021/10/31 03:52:33;;;;;;;51.08;31.33;;;;;;;16.31;69.31;100151.47;4969724;28;119728;-74
2021/10/31 03:54:58;;;;;;;54.08;31.98;;;;;;;16.34;69.51;100156.03;4974047;28;119493;-72
2021/10/31 03:57:24;;;;;;;55.28;29.90;;;;;;;16.35;69.42;100152.00;4972233;28;119776;-73
2021/10/31 03:59:50;;;;;;;47.70;29.27;;;;;;;16.34;69.29;100161.56;4975936;28;119628;-73
2021/10/31 04:02:15;;;;;;;51.25;30.48;;;;;;;16.37;69.40;100155.00;4981275;28;121284;-73
2021/10/31 04:04:41;;;;;;;52.40;29.05;;;;;;;16.40;69.29;100156.03;4964025;28;121733;-72
2021/10/31 04:07:07;;;;;;;48.50;29.30;;;;;;;16.44;69.47;100148.22;4971661;28;119643;-72
2021/10/31 04:09:33;;;;;;;59.17;29.88;;;;;;;16.44;69.31;100146.19;4986310;28;119937;-72
2021/10/31 04:11:58;;;;;;;50.67;30.85;;;;;;;16.45;69.18;100147.72;4967765;28;120637;-72
2021/10/31 04:14:24;;;;;;;51.22;30.08;;;;;;;16.50;69.21;100151.72;4958261;28;121030;-72
2021/10/31 04:16:50;;;;;;;48.58;28.48;;;;;;;16.51;69.33;100162.28;4961402;28;121400;-72
2021/10/31 04:19:15;;;;;;;50.33;30.75;;;;;;;16.51;69.31;100159.53;4982119;28;119281;-73
2021/10/31 04:21:41;;;;;;;54.70;29.25;;;;;;;16.55;69.38;100162.78;4982426;28;119815;-73
2021/10/31 04:24:07;;;;;;;52.17;30.42;;;;;;;16.55;68.84;100168.31;4958796;28;119847;-72
2021/10/31 04:26:32;;;;;;;57.03;31.55;;;;;;;16.53;68.84;100167.31;4978153;28;119522;-73
2021/10/31 04:28:58;;;;;;;47.42;29.35;;;;;;;16.53;68.99;100173.63;4976253;28;121168;-72
2021/10/31 04:31:24;;;;;;;49.58;29.90;;;;;;;16.53;68.92;100173.63;4957676;28;119908;-73
2021/10/31 04:33:49;;;;;;;55.13;30.50;;;;;;;16.52;68.71;100168.59;4979882;28;120146;-72
2021/10/31 04:36:16;;;;;;;50.58;29.48;;;;;;;16.53;68.88;100175.63;4972879;28;119849;-72
2021/10/31 04:38:42;;;;;;;52.53;30.60;;;;;;;16.51;68.61;100178.16;4960398;28;120104;-73
2021/10/31 04:41:09;;;;;;;50.53;30.08;;;;;;;16.48;68.76;100182.69;4979574;28;119770;-72
2021/10/31 04:43:34;;;;;;;49.50;29.88;;;;;;;16.45;68.63;100180.94;4986368;28;120414;-72
2021/10/31 04:46:00;;;;;;;52.03;29.88;;;;;;;16.44;69.03;100178.66;4975943;28;119587;-72
2021/10/31 04:48:26;;;;;;;55.55;30.45;;;;;;;16.46;68.96;100182.44;4958701;28;120224;-72
2021/10/31 04:50:53;;;;;;;54.92;31.48;;;;;;;16.46;68.87;100184.44;4976155;28;119777;-72
2021/10/31 04:53:19;;;;;;;52.20;29.70;;;;;;;16.47;68.86;100189.47;4968637;28;119580;-73
2021/10/31 04:55:44;;;;;;;47.50;30.48;;;;;;;16.48;68.73;100191.00;4978104;28;120233;-72
2021/10/31 04:58:11;;;;;;;52.08;29.80;;;;;;;16.50;68.96;100187.72;4981499;28;119396;-72
2021/10/31 05:00:37;;;;;;;51.05;29.23;;;;;;;16.49;68.96;100191.75;4964027;28;120085;-73
2021/10/31 05:03:03;;;;;;;50.30;29.40;;;;;;;16.50;68.91;100193.25;4978965;28;119597;-72
2021/10/31 05:05:30;;;;;;;52.13;29.63;;;;;;;16.47;68.76;100192.25;4980960;28;119793;-72
2021/10/31 05:07:56;;;;;;;45.97;27.13;;;;;;;16.50;68.79;100199.53;4979106;28;119926;-72
2021/10/31 05:10:24;;;;;;;52.50;29.95;;;;;;;16.50;68.99;100196.78;4962297;28;121903;-73
2021/10/31 05:12:49;;;;;;;50.42;27.77;;;;;;;16.48;68.70;100195.78;4977002;28;120131;-73
2021/10/31 05:15:15;;;;;;;55.25;30.40;;;;;;;16.48;68.81;100195.78;4984334;28;119313;-73
2021/10/31 05:17:41;;;;;;;53.20;29.10;;;;;;;16.47;68.83;100203.31;4949333;28;119706;-72
2021/10/31 05:20:09;;;;;;;47.50;27.33;;;;;;;16.47;69.03;100197.78;4979901;28;119497;-73
2021/10/31 05:22:36;;;;;;;50.45;28.40;;;;;;;16.48;69.15;100196.53;4966865;28;121932;-73
2021/10/31 05:25:03;;;;;;;48.92;27.98;;;;;;;16.48;68.94;100202.06;4972104;28;122080;-72
2021/10/31 05:27:29;;;;;;;50.63;29.02;;;;;;;16.46;69.14;100199.03;4982377;28;119466;-73
2021/10/31 05:29:55;;;;;;;50.35;28.10;;;;;;;16.44;68.89;100203.56;4972017;28;120809;-72
2021/10/31 05:32:20;;;;;;;45.67;27.83;;;;;;;16.44;68.92;100207.09;4983753;28;119597;-73
2021/10/31 05:34:46;;;;;;;48.10;26.42;;;;;;;16.42;68.59;100209.63;4981571;28;119689;-73
2021/10/31 05:37:12;;;;;;;51.20;28.42;;;;;;;16.43;68.84;100210.38;4979342;28;120487;-72
2021/10/31 05:39:38;;;;;;;50.13;27.35;;;;;;;16.44;68.75;100206.34;4977132;28;120260;-72
2021/10/31 05:42:04;;;;;;;46.47;27.20;;;;;;;16.43;68.67;100204.84;4962463;28;122149;-73
2021/10/31 05:44:30;;;;;;;48.50;26.67;;;;;;;16.41;68.84;100208.09;4974089;28;119567;-73
2021/10/31 05:46:55;;;;;;;53.95;26.77;;;;;;;16.41;68.83;100205.34;4982332;28;119653;-72
2021/10/31 05:49:22;;;;;;;46.30;26.77;;;;;;;16.43;68.67;100215.91;4970657;28;120039;-72
2021/10/31 05:51:47;;;;;;;47.13;27.08;;;;;;;16.43;68.74;100215.91;4953661;28;119599;-72
2021/10/31 05:54:13;;;;;;;42.55;25.00;;;;;;;16.41;68.32;100216.41;4961022;28;119824;-73
2021/10/31 05:56:39;;;;;;;48.65;26.45;;;;;;;16.38;68.58;100225.72;4964623;28;120010;-73
2021/10/31 05:59:05;;;;;;;42.95;27.02;;;;;;;16.40;68.76;100225.22;4984894;28;119421;-73
2021/10/31 06:01:31;;;;;;;43.97;26.25;;;;;;;16.41;68.74;100230.25;4981769;28;119459;-73
2021/10/31 06:03:57;;;;;;;49.50;25.02;;;;;;;16.39;68.82;100232.00;4982266;28;119539;-73
2021/10/31 06:06:24;;;;;;;43.85;26.60;;;;;;;16.38;68.69;100234.03;4967464;28;119983;-73
2021/10/31 06:08:50;;;;;;;42.42;25.77;;;;;;;16.38;68.58;100230.50;4970288;28;122209;-73
2021/10/31 06:11:16;;;;;;;51.63;25.92;;;;;;;16.39;68.62;100237.53;4975964;28;119993;-73
2021/10/31 06:13:43;;;;;;;45.10;24.85;;;;;;;16.38;68.54;100247.84;4980782;28;120166;-73
2021/10/31 06:16:09;;;;;;;39.25;24.23;;;;;;;16.38;68.66;100245.09;4965936;28;119531;-73
2021/10/31 06:18:36;;;;;;;42.90;21.63;;;;;;;16.37;68.50;100249.13;4983124;28;119637;-72
2021/10/31 06:21:05;;;;;;;42.03;23.90;;;;;;;16.34;68.48;100250.13;4957878;28;120088;-72
2021/10/31 06:23:31;;;;;;;41.50;23.52;;;;;;;16.33;68.43;100243.06;4970802;28;120037;-72
2021/10/31 06:25:57;;;;;;;40.58;23.77;;;;;;;16.31;68.42;100251.09;4972711;28;119406;-72
2021/10/31 06:28:23;;;;;;;42.85;24.90;;;;;;;16.33;68.17;100262.44;4956514;28;120985;-72
2021/10/31 06:30:48;;;;;;;40.67;23.42;;;;;;;16.33;68.46;100270.75;4953272;28;119683;-72
2021/10/31 06:33:14;;;;;;;37.47;23.38;;;;;;;16.32;68.58;100269.22;4956915;28;119917;-72
2021/10/31 06:35:40;;;;;;;40.80;24.20;;;;;;;16.34;68.79;100261.19;4962192;28;120201;-72
2021/10/31 06:38:06;;;;;;;36.97;24.23;;;;;;;16.33;68.50;100267.97;4969265;28;119889;-73
2021/10/31 06:40:31;;;;;;;46.33;25.05;;;;;;;16.36;68.05;100269.75;4978562;28;119655;-73
2021/10/31 06:42:57;;;;;;;43.70;25.15;;;;;;;16.35;68.45;100271.00;4984487;28;119652;-72
2021/10/31 06:45:23;;;;;;;43.72;25.17;;;;;;;16.35;68.23;100273.78;4972311;28;119494;-72
2021/10/31 06:47:48;;;;;;;41.40;24.25;;;;;;;16.36;67.98;100272.50;4958415;28;119956;-72
2021/10/31 06:50:14;;;;;;;43.75;25.33;;;;;;;16.25;68.00;100267.69;4974163;28;119747;-72
2021/10/31 06:52:40;;;;;;;47.15;25.90;;;;;;;16.32;67.99;100271.22;4962062;28;121859;-73
2021/10/31 06:55:09;;;;;;;48.03;26.08;;;;;;;16.37;68.16;100282.34;4973037;28;120034;-72
2021/10/31 06:57:34;;;;;;;46.05;24.98;;;;;;;16.36;68.01;100283.59;4962922;28;120209;-72
2021/10/31 07:00:00;;;;;;;47.97;25.08;;;;;;;16.33;68.15;100279.06;4959908;28;121106;-73
2021/10/31 07:02:26;;;;;;;39.80;22.63;;;;;;;16.34;68.30;100275.03;4977655;28;119872;-73
2021/10/31 07:04:51;;;;;;;37.40;22.63;;;;;;;16.35;67.92;100281.31;4976754;28;119460;-72
2021/10/31 07:07:18;;;;;;;35.33;21.15;;;;;;;16.33;67.82;100286.59;4974023;28;119667;-72
2021/10/31 07:09:45;;;;;;;35.40;22.98;;;;;;;16.30;67.67;100274.50;4973419;28;119812;-72
2021/10/31 07:12:11;;;;;;;37.42;21.45;;;;;;;16.26;67.64;100276.75;4959349;28;120987;-72
2021/10/31 07:14:37;;;;;;;36.58;22.05;;;;;;;16.24;67.46;100277.25;4973116;28;120809;-72
2021/10/31 07:17:03;;;;;;;36.83;22.63;;;;;;;16.14;67.36;100272.47;4958039;28;120450;-73
2021/10/31 07:19:28;;;;;;;41.95;23.67;;;;;;;16.16;67.26;100281.78;4978450;28;119976;-72
2021/10/31 07:21:54;;;;;;;41.55;23.52;;;;;;;16.14;67.51;100280.75;4973670;28;119952;-72
2021/10/31 07:24:20;;;;;;;39.38;23.35;;;;;;;16.13;67.79;100290.31;4969801;28;120069;-72
2021/10/31 07:26:46;;;;;;;39.67;24.10;;;;;;;16.10;67.60;100289.31;4976345;28;119911;-72
2021/10/31 07:29:11;;;;;;;45.55;25.23;;;;;;;16.08;67.85;100291.03;4960692;28;120271;-72
2021/10/31 07:31:39;;;;;;;47.65;23.33;;;;;;;16.08;67.96;100297.31;4976168;28;119724;-72
2021/10/31 07:34:08;;;;;;;39.95;23.48;;;;;;;16.06;68.10;100299.06;4973982;28;120479;-72
2021/10/31 07:36:35;;;;;;;42.67;24.33;;;;;;;16.03;67.73;100305.59;4972923;28;119745;-72
2021/10/31 07:39:01;;;;;;;39.45;22.83;;;;;;;16.02;68.02;100301.31;4978784;28;119584;-72
2021/10/31 07:41:26;;;;;;;45.72;24.92;;;;;;;16.00;68.41;100301.81;4944302;28;120277;-72
2021/10/31 07:43:53;;;;;;;43.67;25.10;;;;;;;16.01;68.29;100308.88;4983612;28;119875;-72
2021/10/31 07:46:23;;;;;;;40.75;23.92;;;;;;;16.03;68.27;100314.66;4974512;28;120745;-72
2021/10/31 07:48:49;;;;;;;40.58;23.27;;;;;;;16.05;68.41;100316.91;4974872;28;119729;-72
2021/10/31 07:51:16;;;;;;;41.03;23.48;;;;;;;16.08;68.22;100318.69;4964470;28;119935;-72
2021/10/31 07:53:42;;;;;;;40.97;23.17;;;;;;;16.10;68.28;100316.97;4980653;28;120095;-72
2021/10/31 07:56:11;;;;;;;36.60;23.27;;;;;;;16.10;68.20;100318.97;4977493;28;119710;-72
2021/10/31 07:58:37;;;;;;;41.83;24.15;;;;;;;16.09;68.05;100321.00;4979956;28;119937;-72
2021/10/31 08:01:04;;;;;;;40.08;23.92;;;;;;;16.12;68.08;100313.69;4980711;28;121192;-72
2021/10/31 08:03:30;;;;;;;40.17;24.08;;;;;;;16.12;68.55;100305.41;4976875;28;119358;-72
2021/10/31 08:05:56;;;;;;;47.42;26.20;;;;;;;16.10;67.99;100305.16;4983390;28;120229;-72
2021/10/31 08:08:22;;;;;;;44.25;26.25;;;;;;;16.12;68.39;100303.38;4980028;28;119574;-72
2021/10/31 08:10:51;;;;;;;47.90;26.83;;;;;;;16.15;68.30;100296.09;4977783;28;119390;-72
2021/10/31 08:13:24;;;;;;;45.65;27.25;;;;;;;16.19;68.53;100300.13;4976742;28;119994;-72
2021/10/31 08:15:54;;;;;;;43.10;26.52;;;;;;;16.19;68.34;100286.31;4977272;28;119917;-72
2021/10/31 08:18:20;;;;;;;45.63;26.35;;;;;;;16.22;68.10;100299.13;4979335;28;119541;-72
2021/10/31 08:20:47;;;;;;;41.05;24.50;;;;;;;16.22;68.64;100299.13;4955419;28;120320;-71
2021/10/31 08:23:15;;;;;;;37.92;23.85;;;;;;;16.27;68.06;100308.72;4978718;28;119685;-72
2021/10/31 08:25:42;;;;;;;43.38;24.17;;;;;;;16.30;68.31;100302.16;4983450;28;120237;-72
2021/10/31 08:28:10;;;;;;;40.85;22.63;;;;;;;16.29;68.27;100311.72;4983048;28;120493;-72
2021/10/31 08:30:36;;;;;;;38.00;22.55;;;;;;;16.32;68.20;100305.19;4977362;28;119972;-72
2021/10/31 08:33:19;;;;;;;39.75;22.38;;;;;;;16.31;68.23;100303.69;4978708;28;120071;-72
2021/10/31 08:35:46;;;;;;;37.83;21.38;;;;;;;16.29;67.89;100303.44;4979658;28;120069;-72
2021/10/31 08:38:12;;;;;;;42.60;21.05;;;;;;;16.33;68.28;100311.50;4979405;28;120302;-72
2021/10/31 08:40:39;;;;;;;37.65;21.45;;;;;;;16.34;68.09;100319.31;4983485;28;120406;-72
2021/10/31 08:43:05;;;;;;;36.92;21.10;;;;;;;16.37;68.16;100317.56;4962066;28;119616;-72
2021/10/31 08:45:31;;;;;;;36.83;21.17;;;;;;;16.44;68.39;100311.53;4949498;28;119763;-72
2021/10/31 08:47:59;;;;;;;32.60;19.60;;;;;;;16.35;68.36;100293.16;4971500;28;121185;-72
2021/10/31 08:50:25;;;;;;;32.22;17.38;;;;;;;16.51;67.97;100311.03;4986719;28;119493;-74
2021/10/31 08:52:50;;;;;;;32.10;18.25;;;;;;;16.54;67.87;100296.19;4964085;28;120360;-72
2021/10/31 08:55:16;;;;;;;31.70;16.30;;;;;;;16.62;67.85;100299.25;4983782;28;120221;-72
2021/10/31 08:57:42;;;;;;;25.77;15.93;;;;;;;16.65;67.52;100296.22;4985743;28;119476;-72
2021/10/31 09:00:08;;;;;;;28.50;15.68;;;;;;;16.70;67.18;100298.25;4966169;28;121800;-72
2021/10/31 09:02:36;;;;;;;31.95;16.23;;;;;;;16.71;66.83;100279.63;4981463;28;119548;-73
2021/10/31 09:05:04;;;;;;;27.88;15.20;;;;;;;16.74;66.75;100279.38;4959357;28;121086;-72
2021/10/31 09:07:30;;;;;;;28.63;16.00;;;;;;;16.77;67.07;100274.84;4981848;28;121185;-72
2021/10/31 09:09:56;;;;;;;32.88;16.08;;;;;;;16.81;66.81;100267.06;4978647;28;119716;-72
2021/10/31 09:12:22;;;;;;;30.40;16.75;;;;;;;16.84;66.65;100266.06;4980666;28;119440;-72
2021/10/31 09:14:48;;;;;;;30.13;16.55;;;;;;;16.82;66.86;100251.97;4985621;28;119585;-72
2021/10/31 09:17:13;;;;;;;29.33;17.00;;;;;;;16.87;66.83;100251.19;4974124;28;121378;-72
2021/10/31 09:19:39;;;;;;;26.98;14.80;;;;;;;16.86;66.40;100250.44;4973160;28;119853;-72
2021/10/31 09:22:05;;;;;;;28.08;14.25;;;;;;;16.89;66.54;100273.59;4975409;28;119679;-72
2021/10/31 09:24:30;;;;;;;26.85;14.18;;;;;;;16.85;65.92;100284.94;4980076;28;119842;-72
2021/10/31 09:26:56;;;;;;;26.92;13.95;;;;;;;16.82;65.10;100274.13;4963525;28;123045;-73
2021/10/31 09:29:23;;;;;;;26.38;13.57;;;;;;;16.76;65.20;100270.56;4975825;28;119806;-72
2021/10/31 09:31:48;;;;;;;24.10;13.85;;;;;;;16.71;65.52;100274.84;4961306;28;119546;-72
2021/10/31 09:34:14;;;;;;;25.42;14.43;;;;;;;16.70;65.69;100273.34;4976566;28;120830;-72
2021/10/31 09:36:40;;;;;;;26.33;14.98;;;;;;;16.67;65.56;100268.81;4961565;28;121156;-73
2021/10/31 09:39:09;;;;;;;28.00;16.40;;;;;;;16.70;66.00;100272.59;4973548;28;120157;-72
2021/10/31 09:41:36;;;;;;;32.08;19.02;;;;;;;16.70;65.94;100273.34;4957260;28;119955;-72
2021/10/31 09:44:14;;;;;;;30.80;19.02;;;;;;;16.71;65.91;100265.78;4975937;28;119620;-77
2021/10/31 09:46:40;;;;;;;34.60;18.52;;;;;;;16.67;65.23;100279.13;4964645;28;122380;-71
2021/10/31 09:49:10;;;;;;;31.80;20.20;;;;;;;16.64;65.68;100278.09;4974007;28;121552;-71
2021/10/31 09:51:36;;;;;;;40.15;22.10;;;;;;;16.62;65.42;100274.31;4977693;28;120666;-72
2021/10/31 09:54:02;;;;;;;44.28;25.15;;;;;;;16.57;65.69;100261.97;5000516;28;119538;-71
2021/10/31 09:56:35;;;;;;;40.55;25.50;;;;;;;16.57;65.59;100259.22;4996329;28;119855;-72
2021/10/31 09:59:02;;;;;;;42.28;25.88;;;;;;;16.53;65.63;100253.91;4995897;28;120133;-72
2021/10/31 10:04:28;;;;;;;44.47;26.77;;;;;;;16.54;65.65;100244.34;4998188;28;119634;-72
2021/10/31 10:06:56;;;;;;;41.72;27.40;;;;;;;16.60;65.59;100252.66;4961225;28;122469;-72
2021/10/31 10:09:22;;;;;;;45.90;27.10;;;;;;;16.67;66.12;100259.75;4994636;27;119795;-71
2021/10/31 10:11:49;;;;;;;43.20;27.02;;;;;;;16.64;65.58;100246.88;4995003;28;121175;-71
2021/10/31 10:14:23;;;;;;;36.53;23.67;;;;;;;16.70;66.12;100256.72;4963268;28;120825;-71
2021/10/31 10:16:49;;;;;;;36.38;22.38;;;;;;;16.74;65.83;100256.47;4964083;28;120338;-72
2021/10/31 10:19:24;;;;;;;32.58;20.70;;;;;;;16.79;65.17;100259.22;4968802;28;119879;-71
2021/10/31 10:22:10;;;;;;;37.03;21.25;;;;;;;16.74;65.29;100262.75;4955465;28;119719;-71
2021/10/31 10:24:48;;;;;;;35.30;21.02;;;;;;;16.76;65.34;100256.72;4969168;28;119581;-71
2021/10/31 10:27:14;;;;;;;36.83;22.60;;;;;;;16.77;65.25;100270.06;4979160;28;121627;-71
2021/10/31 10:29:41;;;;;;;36.95;21.05;;;;;;;16.79;65.94;100272.31;4973865;28;119557;-72
2021/10/31 10:32:20;;;;;;;34.47;22.35;;;;;;;16.85;65.92;100276.63;4962535;28;119545;-71
2021/10/31 10:34:57;;;;;;;36.00;21.63;;;;;;;16.89;65.20;100279.16;4971308;28;120003;-71
2021/10/31 10:37:26;;;;;;;33.00;20.70;;;;;;;16.86;65.59;100274.63;4972512;28;119531;-71
2021/10/31 10:39:55;;;;;;;34.80;20.83;;;;;;;16.91;65.52;100273.84;4974856;28;119416;-71
2021/10/31 10:42:26;;;;;;;35.63;21.02;;;;;;;16.98;65.18;100276.13;4969335;28;120064;-71
2021/10/31 10:44:59;;;;;;;35.05;19.73;;;;;;;17.03;65.73;100271.81;4967699;28;119906;-71
2021/10/31 10:47:25;;;;;;;35.70;20.65;;;;;;;17.09;65.20;100270.56;4960826;28;119441;-71
2021/10/31 10:49:53;;;;;;;34.22;21.35;;;;;;;17.15;64.87;100262.25;4980279;28;120123;-71
2021/10/31 10:52:27;;;;;;;32.67;20.20;;;;;;;17.16;64.85;100258.97;4959613;28;119556;-71
2021/10/31 10:55:14;;;;;;;;;;;;;;;17.17;65.19;100260.47;4956774;28;120108;-71
2021/10/31 10:57:43;;;;;;;31.08;19.60;;;;;;;17.21;64.98;100251.91;4972217;28;121160;-71
2021/10/31 11:00:19;;;;;;;37.05;19.83;;;;;;;17.28;65.21;100247.88;4958766;28;119775;-71
2021/10/31 11:03:04;;;;;;;34.00;21.27;;;;;;;17.32;64.89;100245.59;4979968;28;119879;-71
2021/10/31 11:05:37;;;;;;;39.35;19.90;;;;;;;17.36;65.08;100246.09;4940938;28;120478;-71
2021/10/31 11:08:14;;;;;;;33.67;20.63;;;;;;;17.39;64.61;100239.53;4968281;28;121748;-71
2021/10/31 11:10:45;;;;;;;34.15;18.88;;;;;;;17.39;63.39;100242.31;4975152;28;120337;-71